sensor_id;sensor_type;location;lat;lon;timestamp;P1;durP1;ratioP1;P2;durP2;ratioP2
43646;SDS011;56152;49.996;18.980;2023-10-08T00:08:40;9.38;;;3.90;;
43646;SDS011;56152;49.996;18.980;2023-10-08T00:13:43;12.57;;;4.47;;
43646;SDS011;56152;49.996;18.980;2023-10-08T00:18:53;8.77;;;3.67;;
43646;SDS011;56152;49.996;18.980;2023-10-08T00:24:00;7.10;;;3.67;;
43646;SDS011;56152;49.996;18.980;2023-10-08T00:29:06;7.97;;;3.75;;
43646;SDS011;56152;49.996;18.980;2023-10-08T00:34:17;11.93;;;4.00;;
43646;SDS011;56152;49.996;18.980;2023-10-08T00:39:21;10.80;;;3.72;;
43646;SDS011;56152;49.996;18.980;2023-10-08T00:44:27;7.75;;;3.88;;
43646;SDS011;56152;49.996;18.980;2023-10-08T00:49:32;7.93;;;3.90;;
43646;SDS011;56152;49.996;18.980;2023-10-08T00:54:48;11.55;;;4.25;;
43646;SDS011;56152;49.996;18.980;2023-10-08T00:59:57;9.90;;;4.32;;
43646;SDS011;56152;49.996;18.980;2023-10-08T01:05:00;7.43;;;3.97;;
43646;SDS011;56152;49.996;18.980;2023-10-08T01:10:03;10.18;;;4.03;;
43646;SDS011;56152;49.996;18.980;2023-10-08T01:15:10;8.65;;;4.65;;
43646;SDS011;56152;49.996;18.980;2023-10-08T01:20:19;12.40;;;3.72;;
43646;SDS011;56152;49.996;18.980;2023-10-08T01:25:35;10.48;;;4.35;;
43646;SDS011;56152;49.996;18.980;2023-10-08T01:30:38;8.18;;;4.00;;
43646;SDS011;56152;49.996;18.980;2023-10-08T01:35:42;10.95;;;4.05;;
43646;SDS011;56152;49.996;18.980;2023-10-08T01:40:45;10.00;;;3.97;;
43646;SDS011;56152;49.996;18.980;2023-10-08T01:45:51;10.35;;;3.42;;
43646;SDS011;56152;49.996;18.980;2023-10-08T01:50:55;8.57;;;3.10;;
43646;SDS011;56152;49.996;18.980;2023-10-08T01:56:03;7.05;;;3.40;;
43646;SDS011;56152;49.996;18.980;2023-10-08T02:01:05;5.85;;;3.35;;
43646;SDS011;56152;49.996;18.980;2023-10-08T02:06:12;7.07;;;3.22;;
43646;SDS011;56152;49.996;18.980;2023-10-08T02:11:16;9.93;;;4.43;;
43646;SDS011;56152;49.996;18.980;2023-10-08T02:16:20;6.13;;;3.22;;
43646;SDS011;56152;49.996;18.980;2023-10-08T02:21:23;5.35;;;2.83;;
43646;SDS011;56152;49.996;18.980;2023-10-08T02:26:27;6.75;;;2.88;;
43646;SDS011;56152;49.996;18.980;2023-10-08T02:31:29;4.55;;;2.88;;
43646;SDS011;56152;49.996;18.980;2023-10-08T02:36:31;4.00;;;2.30;;
43646;SDS011;56152;49.996;18.980;2023-10-08T02:41:38;1.25;;;0.98;;
43646;SDS011;56152;49.996;18.980;2023-10-08T02:46:46;1.30;;;0.98;;
43646;SDS011;56152;49.996;18.980;2023-10-08T02:51:51;1.92;;;1.20;;
43646;SDS011;56152;49.996;18.980;2023-10-08T02:56:56;1.40;;;1.17;;
43646;SDS011;56152;49.996;18.980;2023-10-08T03:02:05;2.37;;;1.30;;
43646;SDS011;56152;49.996;18.980;2023-10-08T03:07:14;1.83;;;1.33;;
43646;SDS011;56152;49.996;18.980;2023-10-08T03:12:23;2.13;;;1.30;;
43646;SDS011;56152;49.996;18.980;2023-10-08T03:17:26;1.38;;;1.00;;
43646;SDS011;56152;49.996;18.980;2023-10-08T03:22:30;1.38;;;1.20;;
43646;SDS011;56152;49.996;18.980;2023-10-08T03:27:38;1.70;;;1.20;;
43646;SDS011;56152;49.996;18.980;2023-10-08T03:32:42;1.85;;;1.20;;
43646;SDS011;56152;49.996;18.980;2023-10-08T03:37:45;1.05;;;0.88;;
43646;SDS011;56152;49.996;18.980;2023-10-08T03:42:55;0.65;;;0.65;;
43646;SDS011;56152;49.996;18.980;2023-10-08T03:47:58;0.52;;;0.52;;
43646;SDS011;56152;49.996;18.980;2023-10-08T03:53:06;2.23;;;0.90;;
43646;SDS011;56152;49.996;18.980;2023-10-08T03:58:14;1.90;;;0.98;;
43646;SDS011;56152;49.996;18.980;2023-10-08T04:03:27;0.68;;;0.60;;
43646;SDS011;56152;49.996;18.980;2023-10-08T04:08:45;1.08;;;0.70;;
43646;SDS011;56152;49.996;18.980;2023-10-08T04:14:00;2.63;;;0.98;;
43646;SDS011;56152;49.996;18.980;2023-10-08T04:19:02;1.50;;;1.30;;
43646;SDS011;56152;49.996;18.980;2023-10-08T04:24:05;2.65;;;1.38;;
43646;SDS011;56152;49.996;18.980;2023-10-08T04:29:12;2.20;;;1.52;;
43646;SDS011;56152;49.996;18.980;2023-10-08T04:34:17;2.30;;;1.05;;
43646;SDS011;56152;49.996;18.980;2023-10-08T04:39:22;3.13;;;1.60;;
43646;SDS011;56152;49.996;18.980;2023-10-08T04:44:33;2.58;;;1.23;;
43646;SDS011;56152;49.996;18.980;2023-10-08T04:49:42;6.03;;;1.55;;
43646;SDS011;56152;49.996;18.980;2023-10-08T04:54:45;3.55;;;1.70;;
43646;SDS011;56152;49.996;18.980;2023-10-08T04:59:52;3.80;;;1.73;;
43646;SDS011;56152;49.996;18.980;2023-10-08T05:04:57;6.32;;;1.77;;
43646;SDS011;56152;49.996;18.980;2023-10-08T05:10:24;3.88;;;1.55;;
43646;SDS011;56152;49.996;18.980;2023-10-08T05:15:47;4.50;;;1.83;;
43646;SDS011;56152;49.996;18.980;2023-10-08T05:21:11;6.05;;;1.60;;
43646;SDS011;56152;49.996;18.980;2023-10-08T05:26:26;3.30;;;1.38;;
43646;SDS011;56152;49.996;18.980;2023-10-08T05:31:43;2.45;;;1.73;;
43646;SDS011;56152;49.996;18.980;2023-10-08T05:37:01;4.13;;;1.65;;
43646;SDS011;56152;49.996;18.980;2023-10-08T05:42:31;7.47;;;2.08;;
43646;SDS011;56152;49.996;18.980;2023-10-08T05:47:47;2.63;;;1.50;;
43646;SDS011;56152;49.996;18.980;2023-10-08T05:53:08;3.90;;;1.35;;
43646;SDS011;56152;49.996;18.980;2023-10-08T05:58:29;2.65;;;1.25;;
43646;SDS011;56152;49.996;18.980;2023-10-08T06:03:47;3.92;;;1.23;;
43646;SDS011;56152;49.996;18.980;2023-10-08T06:09:00;3.13;;;1.45;;
43646;SDS011;56152;49.996;18.980;2023-10-08T06:14:43;13.32;;;8.85;;
43646;SDS011;56152;49.996;18.980;2023-10-08T06:20:07;3.88;;;2.30;;
43646;SDS011;56152;49.996;18.980;2023-10-08T06:25:16;3.20;;;2.25;;
43646;SDS011;56152;49.996;18.980;2023-10-08T06:30:25;2.95;;;1.98;;
43646;SDS011;56152;49.996;18.980;2023-10-08T06:35:29;3.42;;;1.75;;
43646;SDS011;56152;49.996;18.980;2023-10-08T06:40:33;2.72;;;1.80;;
43646;SDS011;56152;49.996;18.980;2023-10-08T06:45:49;3.13;;;1.83;;
43646;SDS011;56152;49.996;18.980;2023-10-08T06:50:53;4.70;;;2.95;;
43646;SDS011;56152;49.996;18.980;2023-10-08T06:55:58;4.28;;;2.42;;
43646;SDS011;56152;49.996;18.980;2023-10-08T07:01:05;3.65;;;2.20;;
43646;SDS011;56152;49.996;18.980;2023-10-08T07:06:11;2.15;;;1.60;;
43646;SDS011;56152;49.996;18.980;2023-10-08T07:11:25;2.90;;;1.83;;
43646;SDS011;56152;49.996;18.980;2023-10-08T07:16:30;7.85;;;3.72;;
43646;SDS011;56152;49.996;18.980;2023-10-08T07:21:33;7.78;;;3.35;;
43646;SDS011;56152;49.996;18.980;2023-10-08T07:26:44;7.85;;;4.05;;
43646;SDS011;56152;49.996;18.980;2023-10-08T07:31:51;6.88;;;3.28;;
43646;SDS011;56152;49.996;18.980;2023-10-08T07:36:54;6.95;;;3.72;;
43646;SDS011;56152;49.996;18.980;2023-10-08T07:41:56;7.63;;;3.40;;
43646;SDS011;56152;49.996;18.980;2023-10-08T07:47:02;8.43;;;5.82;;
43646;SDS011;56152;49.996;18.980;2023-10-08T07:52:10;8.43;;;5.30;;
43646;SDS011;56152;49.996;18.980;2023-10-08T07:57:16;4.95;;;3.20;;
43646;SDS011;56152;49.996;18.980;2023-10-08T08:02:27;6.78;;;3.33;;
43646;SDS011;56152;49.996;18.980;2023-10-08T08:07:32;7.50;;;3.58;;
43646;SDS011;56152;49.996;18.980;2023-10-08T08:12:37;4.93;;;2.95;;
43646;SDS011;56152;49.996;18.980;2023-10-08T08:17:41;9.07;;;3.63;;
43646;SDS011;56152;49.996;18.980;2023-10-08T08:22:43;8.32;;;3.47;;
43646;SDS011;56152;49.996;18.980;2023-10-08T08:27:50;5.03;;;2.58;;
43646;SDS011;56152;49.996;18.980;2023-10-08T08:32:54;7.10;;;3.00;;
43646;SDS011;56152;49.996;18.980;2023-10-08T08:37:59;5.90;;;2.72;;
43646;SDS011;56152;49.996;18.980;2023-10-08T08:43:06;5.32;;;2.60;;
43646;SDS011;56152;49.996;18.980;2023-10-08T08:48:13;7.15;;;2.88;;
43646;SDS011;56152;49.996;18.980;2023-10-08T08:53:18;6.18;;;2.85;;
43646;SDS011;56152;49.996;18.980;2023-10-08T08:58:22;5.72;;;2.75;;
43646;SDS011;56152;49.996;18.980;2023-10-08T09:03:27;8.00;;;3.05;;
43646;SDS011;56152;49.996;18.980;2023-10-08T09:08:34;6.65;;;3.05;;
43646;SDS011;56152;49.996;18.980;2023-10-08T09:13:37;7.93;;;3.45;;
43646;SDS011;56152;49.996;18.980;2023-10-08T09:18:42;8.70;;;4.43;;
43646;SDS011;56152;49.996;18.980;2023-10-08T09:23:49;4.72;;;2.80;;
43646;SDS011;56152;49.996;18.980;2023-10-08T09:28:53;5.82;;;3.00;;
43646;SDS011;56152;49.996;18.980;2023-10-08T09:34:22;3.80;;;2.30;;
43646;SDS011;56152;49.996;18.980;2023-10-08T09:39:40;6.13;;;2.80;;
43646;SDS011;56152;49.996;18.980;2023-10-08T09:44:46;3.85;;;2.20;;
43646;SDS011;56152;49.996;18.980;2023-10-08T09:49:52;5.28;;;2.20;;
43646;SDS011;56152;49.996;18.980;2023-10-08T09:55:03;4.30;;;2.35;;
43646;SDS011;56152;49.996;18.980;2023-10-08T10:05:20;3.95;;;1.90;;
43646;SDS011;56152;49.996;18.980;2023-10-08T10:10:26;5.63;;;2.40;;
43646;SDS011;56152;49.996;18.980;2023-10-08T10:15:31;5.88;;;1.80;;
43646;SDS011;56152;49.996;18.980;2023-10-08T10:20:40;3.67;;;2.10;;
43646;SDS011;56152;49.996;18.980;2023-10-08T10:25:50;5.80;;;2.15;;
43646;SDS011;56152;49.996;18.980;2023-10-08T10:30:54;5.30;;;2.67;;
43646;SDS011;56152;49.996;18.980;2023-10-08T10:36:04;6.20;;;2.13;;
43646;SDS011;56152;49.996;18.980;2023-10-08T10:41:18;2.70;;;1.73;;
43646;SDS011;56152;49.996;18.980;2023-10-08T10:46:28;2.88;;;1.80;;
43646;SDS011;56152;49.996;18.980;2023-10-08T10:51:43;2.92;;;1.88;;
43646;SDS011;56152;49.996;18.980;2023-10-08T10:56:46;4.07;;;2.10;;
43646;SDS011;56152;49.996;18.980;2023-10-08T11:02:05;6.80;;;1.58;;
43646;SDS011;56152;49.996;18.980;2023-10-08T11:07:10;1.98;;;1.50;;
43646;SDS011;56152;49.996;18.980;2023-10-08T11:12:16;5.35;;;2.92;;
43646;SDS011;56152;49.996;18.980;2023-10-08T11:17:32;2.75;;;1.50;;
43646;SDS011;56152;49.996;18.980;2023-10-08T11:22:42;2.65;;;1.30;;
43646;SDS011;56152;49.996;18.980;2023-10-08T11:27:45;5.85;;;1.95;;
43646;SDS011;56152;49.996;18.980;2023-10-08T11:32:48;2.90;;;1.75;;
43646;SDS011;56152;49.996;18.980;2023-10-08T11:37:52;3.13;;;1.98;;
43646;SDS011;56152;49.996;18.980;2023-10-08T11:43:01;4.43;;;1.60;;
43646;SDS011;56152;49.996;18.980;2023-10-08T11:48:05;2.45;;;1.50;;
43646;SDS011;56152;49.996;18.980;2023-10-08T11:53:13;3.95;;;1.70;;
43646;SDS011;56152;49.996;18.980;2023-10-08T11:58:15;2.85;;;1.27;;
43646;SDS011;56152;49.996;18.980;2023-10-08T12:03:29;2.40;;;1.77;;
43646;SDS011;56152;49.996;18.980;2023-10-08T12:08:34;3.53;;;1.70;;
43646;SDS011;56152;49.996;18.980;2023-10-08T12:13:39;3.80;;;1.63;;
43646;SDS011;56152;49.996;18.980;2023-10-08T12:18:45;2.65;;;1.35;;
43646;SDS011;56152;49.996;18.980;2023-10-08T12:23:55;3.17;;;1.80;;
43646;SDS011;56152;49.996;18.980;2023-10-08T12:29:05;3.65;;;1.48;;
43646;SDS011;56152;49.996;18.980;2023-10-08T12:34:11;9.02;;;2.83;;
43646;SDS011;56152;49.996;18.980;2023-10-08T12:39:14;4.30;;;1.70;;
43646;SDS011;56152;49.996;18.980;2023-10-08T12:49:30;4.10;;;1.77;;
43646;SDS011;56152;49.996;18.980;2023-10-08T12:54:36;3.83;;;1.98;;
43646;SDS011;56152;49.996;18.980;2023-10-08T12:59:45;2.85;;;1.80;;
43646;SDS011;56152;49.996;18.980;2023-10-08T13:04:51;3.33;;;1.58;;
43646;SDS011;56152;49.996;18.980;2023-10-08T13:09:56;4.07;;;1.70;;
43646;SDS011;56152;49.996;18.980;2023-10-08T13:20:41;2.47;;;1.60;;
43646;SDS011;56152;49.996;18.980;2023-10-08T13:25:54;2.08;;;1.40;;
43646;SDS011;56152;49.996;18.980;2023-10-08T13:31:04;2.25;;;1.50;;
43646;SDS011;56152;49.996;18.980;2023-10-08T13:36:16;7.07;;;1.50;;
43646;SDS011;56152;49.996;18.980;2023-10-08T13:41:22;2.67;;;1.48;;
43646;SDS011;56152;49.996;18.980;2023-10-08T13:46:38;3.17;;;1.58;;
43646;SDS011;56152;49.996;18.980;2023-10-08T13:51:54;1.75;;;1.13;;
43646;SDS011;56152;49.996;18.980;2023-10-08T13:57:30;5.80;;;1.60;;
43646;SDS011;56152;49.996;18.980;2023-10-08T14:02:36;3.38;;;1.85;;
43646;SDS011;56152;49.996;18.980;2023-10-08T14:13:40;3.58;;;1.73;;
43646;SDS011;56152;49.996;18.980;2023-10-08T14:18:43;3.83;;;1.85;;
43646;SDS011;56152;49.996;18.980;2023-10-08T14:23:53;3.67;;;1.38;;
43646;SDS011;56152;49.996;18.980;2023-10-08T14:29:00;4.28;;;1.60;;
43646;SDS011;56152;49.996;18.980;2023-10-08T14:34:08;2.97;;;1.67;;
43646;SDS011;56152;49.996;18.980;2023-10-08T14:39:29;6.72;;;3.13;;
43646;SDS011;56152;49.996;18.980;2023-10-08T14:44:50;3.22;;;1.45;;
43646;SDS011;56152;49.996;18.980;2023-10-08T14:49:52;9.20;;;3.30;;
43646;SDS011;56152;49.996;18.980;2023-10-08T14:54:54;3.35;;;1.60;;
43646;SDS011;56152;49.996;18.980;2023-10-08T14:59:58;2.58;;;1.55;;
43646;SDS011;56152;49.996;18.980;2023-10-08T15:05:03;3.58;;;1.60;;
43646;SDS011;56152;49.996;18.980;2023-10-08T15:10:07;2.63;;;1.52;;
43646;SDS011;56152;49.996;18.980;2023-10-08T15:15:14;3.90;;;1.60;;
43646;SDS011;56152;49.996;18.980;2023-10-08T15:20:17;2.15;;;1.50;;
43646;SDS011;56152;49.996;18.980;2023-10-08T15:25:20;2.90;;;1.52;;
43646;SDS011;56152;49.996;18.980;2023-10-08T15:30:30;2.38;;;1.25;;
43646;SDS011;56152;49.996;18.980;2023-10-08T15:35:34;1.63;;;1.45;;
43646;SDS011;56152;49.996;18.980;2023-10-08T15:40:47;3.00;;;1.67;;
43646;SDS011;56152;49.996;18.980;2023-10-08T15:45:51;1.60;;;1.33;;
43646;SDS011;56152;49.996;18.980;2023-10-08T15:50:54;4.30;;;2.20;;
43646;SDS011;56152;49.996;18.980;2023-10-08T15:55:57;7.68;;;2.22;;
43646;SDS011;56152;49.996;18.980;2023-10-08T16:01:03;2.83;;;1.67;;
43646;SDS011;56152;49.996;18.980;2023-10-08T16:06:06;7.20;;;3.35;;
43646;SDS011;56152;49.996;18.980;2023-10-08T16:11:08;5.15;;;2.58;;
43646;SDS011;56152;49.996;18.980;2023-10-08T16:16:25;12.43;;;5.30;;
43646;SDS011;56152;49.996;18.980;2023-10-08T16:21:28;13.80;;;5.65;;
43646;SDS011;56152;49.996;18.980;2023-10-08T16:26:42;32.88;;;8.38;;
43646;SDS011;56152;49.996;18.980;2023-10-08T16:31:49;14.98;;;6.20;;
43646;SDS011;56152;49.996;18.980;2023-10-08T16:36:51;17.13;;;8.15;;
43646;SDS011;56152;49.996;18.980;2023-10-08T16:41:54;19.38;;;7.22;;
43646;SDS011;56152;49.996;18.980;2023-10-08T16:47:01;15.07;;;8.30;;
43646;SDS011;56152;49.996;18.980;2023-10-08T16:52:04;18.92;;;9.48;;
43646;SDS011;56152;49.996;18.980;2023-10-08T16:57:13;32.13;;;18.48;;
43646;SDS011;56152;49.996;18.980;2023-10-08T17:02:18;19.95;;;11.95;;
43646;SDS011;56152;49.996;18.980;2023-10-08T17:07:25;23.67;;;13.43;;
43646;SDS011;56152;49.996;18.980;2023-10-08T17:12:29;24.45;;;11.38;;
43646;SDS011;56152;49.996;18.980;2023-10-08T17:17:39;14.95;;;8.43;;
43646;SDS011;56152;49.996;18.980;2023-10-08T17:22:42;27.17;;;14.50;;
43646;SDS011;56152;49.996;18.980;2023-10-08T17:27:49;25.10;;;14.75;;
43646;SDS011;56152;49.996;18.980;2023-10-08T17:32:56;53.20;;;20.25;;
43646;SDS011;56152;49.996;18.980;2023-10-08T17:37:58;46.03;;;25.25;;
43646;SDS011;56152;49.996;18.980;2023-10-08T17:43:05;36.72;;;17.63;;
43646;SDS011;56152;49.996;18.980;2023-10-08T17:48:10;34.67;;;20.17;;
43646;SDS011;56152;49.996;18.980;2023-10-08T17:53:12;32.78;;;19.38;;
43646;SDS011;56152;49.996;18.980;2023-10-08T17:58:19;22.00;;;13.50;;
43646;SDS011;56152;49.996;18.980;2023-10-08T18:03:28;16.33;;;10.75;;
43646;SDS011;56152;49.996;18.980;2023-10-08T18:08:30;20.25;;;10.20;;
43646;SDS011;56152;49.996;18.980;2023-10-08T18:13:33;18.80;;;10.32;;
43646;SDS011;56152;49.996;18.980;2023-10-08T18:18:44;22.88;;;12.07;;
43646;SDS011;56152;49.996;18.980;2023-10-08T18:23:46;26.23;;;13.60;;
43646;SDS011;56152;49.996;18.980;2023-10-08T18:28:51;27.92;;;13.68;;
43646;SDS011;56152;49.996;18.980;2023-10-08T18:33:57;23.77;;;10.52;;
43646;SDS011;56152;49.996;18.980;2023-10-08T18:39:00;18.38;;;10.18;;
43646;SDS011;56152;49.996;18.980;2023-10-08T18:44:04;41.45;;;20.15;;
43646;SDS011;56152;49.996;18.980;2023-10-08T18:49:10;33.47;;;16.33;;
43646;SDS011;56152;49.996;18.980;2023-10-08T18:54:14;42.85;;;20.50;;
43646;SDS011;56152;49.996;18.980;2023-10-08T18:59:18;39.38;;;19.55;;
43646;SDS011;56152;49.996;18.980;2023-10-08T19:04:23;37.58;;;17.80;;
43646;SDS011;56152;49.996;18.980;2023-10-08T19:09:25;31.88;;;16.17;;
43646;SDS011;56152;49.996;18.980;2023-10-08T19:14:28;29.80;;;14.65;;
43646;SDS011;56152;49.996;18.980;2023-10-08T19:19:32;36.35;;;17.90;;
43646;SDS011;56152;49.996;18.980;2023-10-08T19:24:34;31.38;;;16.60;;
43646;SDS011;56152;49.996;18.980;2023-10-08T19:29:41;28.92;;;15.18;;
43646;SDS011;56152;49.996;18.980;2023-10-08T19:34:48;26.75;;;12.40;;
43646;SDS011;56152;49.996;18.980;2023-10-08T19:39:51;22.40;;;11.65;;
43646;SDS011;56152;49.996;18.980;2023-10-08T19:45:09;25.00;;;10.85;;
43646;SDS011;56152;49.996;18.980;2023-10-08T19:55:34;29.83;;;12.60;;
43646;SDS011;56152;49.996;18.980;2023-10-08T20:00:41;23.83;;;11.98;;
43646;SDS011;56152;49.996;18.980;2023-10-08T20:05:48;37.45;;;16.48;;
43646;SDS011;56152;49.996;18.980;2023-10-08T20:10:55;28.85;;;12.68;;
43646;SDS011;56152;49.996;18.980;2023-10-08T20:15:58;28.42;;;12.20;;
43646;SDS011;56152;49.996;18.980;2023-10-08T20:21:06;33.38;;;14.15;;
43646;SDS011;56152;49.996;18.980;2023-10-08T20:26:16;30.45;;;14.68;;
43646;SDS011;56152;49.996;18.980;2023-10-08T20:31:33;23.25;;;11.65;;
43646;SDS011;56152;49.996;18.980;2023-10-08T20:36:35;27.00;;;11.18;;
43646;SDS011;56152;49.996;18.980;2023-10-08T20:41:44;26.05;;;12.13;;
43646;SDS011;56152;49.996;18.980;2023-10-08T20:46:49;28.70;;;14.90;;
43646;SDS011;56152;49.996;18.980;2023-10-08T20:51:51;18.70;;;8.43;;
43646;SDS011;56152;49.996;18.980;2023-10-08T20:56:55;29.45;;;14.15;;
43646;SDS011;56152;49.996;18.980;2023-10-08T21:01:57;50.97;;;20.77;;
43646;SDS011;56152;49.996;18.980;2023-10-08T21:07:01;38.58;;;17.45;;
43646;SDS011;56152;49.996;18.980;2023-10-08T21:12:06;27.95;;;12.50;;
43646;SDS011;56152;49.996;18.980;2023-10-08T21:17:08;31.25;;;16.13;;
43646;SDS011;56152;49.996;18.980;2023-10-08T21:22:11;32.47;;;14.45;;
43646;SDS011;56152;49.996;18.980;2023-10-08T21:27:15;22.33;;;12.90;;
43646;SDS011;56152;49.996;18.980;2023-10-08T21:32:17;19.30;;;10.05;;
43646;SDS011;56152;49.996;18.980;2023-10-08T21:37:18;19.35;;;9.95;;
43646;SDS011;56152;49.996;18.980;2023-10-08T21:42:22;26.40;;;10.35;;
43646;SDS011;56152;49.996;18.980;2023-10-08T21:47:24;19.48;;;9.52;;
43646;SDS011;56152;49.996;18.980;2023-10-08T21:52:27;17.67;;;8.13;;
43646;SDS011;56152;49.996;18.980;2023-10-08T21:57:31;14.60;;;7.25;;
43646;SDS011;56152;49.996;18.980;2023-10-08T22:02:43;19.33;;;9.02;;
43646;SDS011;56152;49.996;18.980;2023-10-08T22:07:46;15.57;;;7.75;;
43646;SDS011;56152;49.996;18.980;2023-10-08T22:12:50;21.80;;;9.23;;
43646;SDS011;56152;49.996;18.980;2023-10-08T22:17:54;27.65;;;14.15;;
43646;SDS011;56152;49.996;18.980;2023-10-08T22:23:01;30.45;;;15.88;;
43646;SDS011;56152;49.996;18.980;2023-10-08T22:28:07;42.42;;;21.83;;
43646;SDS011;56152;49.996;18.980;2023-10-08T22:33:12;40.97;;;20.38;;
43646;SDS011;56152;49.996;18.980;2023-10-08T22:38:15;47.72;;;21.88;;
43646;SDS011;56152;49.996;18.980;2023-10-08T22:43:19;49.63;;;20.40;;
43646;SDS011;56152;49.996;18.980;2023-10-08T22:48:23;38.53;;;19.00;;
43646;SDS011;56152;49.996;18.980;2023-10-08T22:53:39;44.20;;;20.77;;
43646;SDS011;56152;49.996;18.980;2023-10-08T22:58:46;42.20;;;20.35;;
43646;SDS011;56152;49.996;18.980;2023-10-08T23:03:50;35.70;;;17.90;;
43646;SDS011;56152;49.996;18.980;2023-10-08T23:08:56;37.15;;;17.25;;
43646;SDS011;56152;49.996;18.980;2023-10-08T23:14:00;41.30;;;19.00;;
43646;SDS011;56152;49.996;18.980;2023-10-08T23:19:04;30.85;;;15.80;;
43646;SDS011;56152;49.996;18.980;2023-10-08T23:24:06;30.23;;;14.75;;
43646;SDS011;56152;49.996;18.980;2023-10-08T23:29:10;33.75;;;16.38;;
43646;SDS011;56152;49.996;18.980;2023-10-08T23:34:12;33.88;;;15.45;;
43646;SDS011;56152;49.996;18.980;2023-10-08T23:39:15;41.17;;;20.65;;
43646;SDS011;56152;49.996;18.980;2023-10-08T23:44:19;37.20;;;17.60;;
43646;SDS011;56152;49.996;18.980;2023-10-08T23:49:35;35.33;;;15.63;;
43646;SDS011;56152;49.996;18.980;2023-10-08T23:54:53;36.45;;;18.48;;
